sensor_id;sensor_type;location;lat;lon;timestamp;temperature;humidity
19928;DHT22;10126;50.876;4.470;2023-02-11T00:01:31;6.70;99.90
19928;DHT22;10126;50.876;4.470;2023-02-11T00:03:31;6.70;99.90
19928;DHT22;10126;50.876;4.470;2023-02-11T00:05:32;6.60;99.90
19928;DHT22;10126;50.876;4.470;2023-02-11T00:07:33;6.60;99.90
19928;DHT22;10126;50.876;4.470;2023-02-11T00:09:35;6.60;99.90
19928;DHT22;10126;50.876;4.470;2023-02-11T00:11:36;6.60;99.90
19928;DHT22;10126;50.876;4.470;2023-02-11T00:13:37;6.50;99.90
19928;DHT22;10126;50.876;4.470;2023-02-11T00:15:37;6.50;99.90
19928;DHT22;10126;50.876;4.470;2023-02-11T00:17:38;6.40;99.90
19928;DHT22;10126;50.876;4.470;2023-02-11T00:19:39;6.40;99.90
19928;DHT22;10126;50.876;4.470;2023-02-11T00:21:39;6.30;99.90
19928;DHT22;10126;50.876;4.470;2023-02-11T00:23:40;6.40;99.90
19928;DHT22;10126;50.876;4.470;2023-02-11T00:25:43;6.40;99.90
19928;DHT22;10126;50.876;4.470;2023-02-11T00:27:44;6.30;99.90
19928;DHT22;10126;50.876;4.470;2023-02-11T00:29:45;6.40;99.90
19928;DHT22;10126;50.876;4.470;2023-02-11T00:31:45;6.40;99.90
19928;DHT22;10126;50.876;4.470;2023-02-11T00:33:46;6.30;99.90
19928;DHT22;10126;50.876;4.470;2023-02-11T00:35:47;6.40;99.90
19928;DHT22;10126;50.876;4.470;2023-02-11T00:37:47;6.30;99.90
19928;DHT22;10126;50.876;4.470;2023-02-11T00:39:48;6.30;99.90
19928;DHT22;10126;50.876;4.470;2023-02-11T00:41:49;6.40;99.90
19928;DHT22;10126;50.876;4.470;2023-02-11T00:43:50;6.40;99.90
19928;DHT22;10126;50.876;4.470;2023-02-11T00:45:51;6.40;99.90
19928;DHT22;10126;50.876;4.470;2023-02-11T00:47:52;6.40;99.90
19928;DHT22;10126;50.876;4.470;2023-02-11T00:49:52;6.20;99.90
19928;DHT22;10126;50.876;4.470;2023-02-11T00:51:53;6.20;99.90
19928;DHT22;10126;50.876;4.470;2023-02-11T00:53:54;6.20;99.90
19928;DHT22;10126;50.876;4.470;2023-02-11T00:55:55;6.20;99.90
19928;DHT22;10126;50.876;4.470;2023-02-11T00:57:55;6.20;99.90
19928;DHT22;10126;50.876;4.470;2023-02-11T00:59:58;6.20;99.90
19928;DHT22;10126;50.876;4.470;2023-02-11T01:01:58;6.30;99.90
19928;DHT22;10126;50.876;4.470;2023-02-11T01:03:59;6.30;99.90
19928;DHT22;10126;50.876;4.470;2023-02-11T01:06:00;6.30;99.90
19928;DHT22;10126;50.876;4.470;2023-02-11T01:08:00;6.20;99.90
19928;DHT22;10126;50.876;4.470;2023-02-11T01:10:01;6.30;99.90
19928;DHT22;10126;50.876;4.470;2023-02-11T01:12:02;6.30;99.90
19928;DHT22;10126;50.876;4.470;2023-02-11T01:14:03;6.40;99.90
19928;DHT22;10126;50.876;4.470;2023-02-11T01:16:06;6.40;99.90
19928;DHT22;10126;50.876;4.470;2023-02-11T01:18:07;6.50;99.90
19928;DHT22;10126;50.876;4.470;2023-02-11T01:20:15;6.60;99.90
19928;DHT22;10126;50.876;4.470;2023-02-11T01:22:16;6.70;99.90
19928;DHT22;10126;50.876;4.470;2023-02-11T01:24:17;6.70;99.90
19928;DHT22;10126;50.876;4.470;2023-02-11T01:26:18;6.60;99.90
19928;DHT22;10126;50.876;4.470;2023-02-11T01:28:21;6.60;99.90
19928;DHT22;10126;50.876;4.470;2023-02-11T01:30:22;6.60;99.90
19928;DHT22;10126;50.876;4.470;2023-02-11T01:32:23;6.60;99.90
19928;DHT22;10126;50.876;4.470;2023-02-11T01:34:23;6.60;99.90
19928;DHT22;10126;50.876;4.470;2023-02-11T01:36:24;6.50;99.90
19928;DHT22;10126;50.876;4.470;2023-02-11T01:38:25;6.50;99.90
19928;DHT22;10126;50.876;4.470;2023-02-11T01:40:26;6.50;99.90
19928;DHT22;10126;50.876;4.470;2023-02-11T01:42:26;6.50;99.90
19928;DHT22;10126;50.876;4.470;2023-02-11T01:44:31;6.50;99.90
19928;DHT22;10126;50.876;4.470;2023-02-11T01:46:35;6.50;99.90
19928;DHT22;10126;50.876;4.470;2023-02-11T01:48:40;6.50;99.90
19928;DHT22;10126;50.876;4.470;2023-02-11T01:50:42;6.50;99.90
19928;DHT22;10126;50.876;4.470;2023-02-11T01:52:44;6.50;99.90
19928;DHT22;10126;50.876;4.470;2023-02-11T01:54:50;6.40;99.90
19928;DHT22;10126;50.876;4.470;2023-02-11T01:57:12;6.40;99.90
19928;DHT22;10126;50.876;4.470;2023-02-11T01:59:29;6.40;99.90
19928;DHT22;10126;50.876;4.470;2023-02-11T02:01:33;6.40;99.90
19928;DHT22;10126;50.876;4.470;2023-02-11T02:03:36;6.30;99.90
19928;DHT22;10126;50.876;4.470;2023-02-11T02:10:08;6.60;99.90
19928;DHT22;10126;50.876;4.470;2023-02-11T02:12:10;6.60;99.90
19928;DHT22;10126;50.876;4.470;2023-02-11T02:14:11;6.70;99.90
19928;DHT22;10126;50.876;4.470;2023-02-11T02:16:17;6.80;99.90
19928;DHT22;10126;50.876;4.470;2023-02-11T02:35:12;7.10;99.90
19928;DHT22;10126;50.876;4.470;2023-02-11T02:39:25;7.10;99.90
19928;DHT22;10126;50.876;4.470;2023-02-11T02:41:29;7.10;99.90
19928;DHT22;10126;50.876;4.470;2023-02-11T02:43:31;7.20;99.90
19928;DHT22;10126;50.876;4.470;2023-02-11T02:45:32;7.10;99.90
19928;DHT22;10126;50.876;4.470;2023-02-11T02:47:33;7.20;99.90
19928;DHT22;10126;50.876;4.470;2023-02-11T02:49:34;7.20;99.90
19928;DHT22;10126;50.876;4.470;2023-02-11T02:56:06;7.00;99.90
19928;DHT22;10126;50.876;4.470;2023-02-11T03:03:05;7.20;99.90
19928;DHT22;10126;50.876;4.470;2023-02-11T03:09:58;7.20;99.90
19928;DHT22;10126;50.876;4.470;2023-02-11T03:12:01;7.30;99.90
19928;DHT22;10126;50.876;4.470;2023-02-11T03:14:05;7.20;99.90
19928;DHT22;10126;50.876;4.470;2023-02-11T03:16:23;7.30;99.90
19928;DHT22;10126;50.876;4.470;2023-02-11T03:18:26;7.30;99.90
19928;DHT22;10126;50.876;4.470;2023-02-11T03:20:29;7.30;99.90
19928;DHT22;10126;50.876;4.470;2023-02-11T03:22:36;7.30;99.90
19928;DHT22;10126;50.876;4.470;2023-02-11T03:24:38;7.20;99.90
19928;DHT22;10126;50.876;4.470;2023-02-11T03:26:53;7.30;99.90
19928;DHT22;10126;50.876;4.470;2023-02-11T03:29:09;7.30;99.90
19928;DHT22;10126;50.876;4.470;2023-02-11T03:31:17;7.40;99.90
19928;DHT22;10126;50.876;4.470;2023-02-11T03:36:09;7.50;99.90
19928;DHT22;10126;50.876;4.470;2023-02-11T03:38:20;7.50;99.90
19928;DHT22;10126;50.876;4.470;2023-02-11T03:40:27;7.60;99.90
19928;DHT22;10126;50.876;4.470;2023-02-11T03:42:42;7.60;99.90
19928;DHT22;10126;50.876;4.470;2023-02-11T03:44:47;7.60;99.90
19928;DHT22;10126;50.876;4.470;2023-02-11T03:46:50;7.60;99.90
19928;DHT22;10126;50.876;4.470;2023-02-11T03:48:55;7.60;99.90
19928;DHT22;10126;50.876;4.470;2023-02-11T03:50:58;7.50;99.90
19928;DHT22;10126;50.876;4.470;2023-02-11T03:53:01;7.50;99.90
19928;DHT22;10126;50.876;4.470;2023-02-11T03:55:07;7.40;99.90
19928;DHT22;10126;50.876;4.470;2023-02-11T03:57:09;7.50;99.90
19928;DHT22;10126;50.876;4.470;2023-02-11T03:59:09;7.60;99.90
19928;DHT22;10126;50.876;4.470;2023-02-11T04:01:10;7.50;99.90
19928;DHT22;10126;50.876;4.470;2023-02-11T04:03:12;7.50;99.90
19928;DHT22;10126;50.876;4.470;2023-02-11T04:05:14;7.50;99.90
19928;DHT22;10126;50.876;4.470;2023-02-11T04:07:15;7.40;99.90
19928;DHT22;10126;50.876;4.470;2023-02-11T04:09:16;7.40;99.90
19928;DHT22;10126;50.876;4.470;2023-02-11T04:11:17;7.50;99.90
19928;DHT22;10126;50.876;4.470;2023-02-11T04:13:17;7.40;99.90
19928;DHT22;10126;50.876;4.470;2023-02-11T04:15:18;7.40;99.90
19928;DHT22;10126;50.876;4.470;2023-02-11T04:17:19;7.40;99.90
19928;DHT22;10126;50.876;4.470;2023-02-11T04:19:19;7.30;99.90
19928;DHT22;10126;50.876;4.470;2023-02-11T04:21:20;7.40;99.90
19928;DHT22;10126;50.876;4.470;2023-02-11T04:23:21;7.40;99.90
19928;DHT22;10126;50.876;4.470;2023-02-11T04:25:21;7.40;99.90
19928;DHT22;10126;50.876;4.470;2023-02-11T04:27:22;7.30;99.90
19928;DHT22;10126;50.876;4.470;2023-02-11T04:29:23;7.50;99.90
19928;DHT22;10126;50.876;4.470;2023-02-11T04:31:23;7.40;99.90
19928;DHT22;10126;50.876;4.470;2023-02-11T04:33:24;7.50;99.90
19928;DHT22;10126;50.876;4.470;2023-02-11T04:35:25;7.60;99.90
19928;DHT22;10126;50.876;4.470;2023-02-11T04:37:25;7.50;99.90
19928;DHT22;10126;50.876;4.470;2023-02-11T04:39:26;7.50;99.90
19928;DHT22;10126;50.876;4.470;2023-02-11T04:41:27;7.40;99.90
19928;DHT22;10126;50.876;4.470;2023-02-11T04:43:27;7.40;99.90
19928;DHT22;10126;50.876;4.470;2023-02-11T04:45:28;7.50;99.90
19928;DHT22;10126;50.876;4.470;2023-02-11T04:47:29;7.60;99.90
19928;DHT22;10126;50.876;4.470;2023-02-11T04:49:29;7.60;99.90
19928;DHT22;10126;50.876;4.470;2023-02-11T04:51:31;7.60;99.90
19928;DHT22;10126;50.876;4.470;2023-02-11T04:53:31;7.60;99.90
19928;DHT22;10126;50.876;4.470;2023-02-11T04:55:32;7.50;99.90
19928;DHT22;10126;50.876;4.470;2023-02-11T04:57:32;7.50;99.90
19928;DHT22;10126;50.876;4.470;2023-02-11T04:59:33;7.40;99.90
19928;DHT22;10126;50.876;4.470;2023-02-11T05:01:34;7.50;99.90
19928;DHT22;10126;50.876;4.470;2023-02-11T05:03:35;7.50;99.90
19928;DHT22;10126;50.876;4.470;2023-02-11T05:05:39;7.50;99.90
19928;DHT22;10126;50.876;4.470;2023-02-11T05:07:40;7.50;99.90
19928;DHT22;10126;50.876;4.470;2023-02-11T05:09:41;7.60;99.90
19928;DHT22;10126;50.876;4.470;2023-02-11T05:11:41;7.60;99.90
19928;DHT22;10126;50.876;4.470;2023-02-11T05:13:42;7.60;99.90
19928;DHT22;10126;50.876;4.470;2023-02-11T05:15:43;7.50;99.90
19928;DHT22;10126;50.876;4.470;2023-02-11T05:17:44;7.60;99.90
19928;DHT22;10126;50.876;4.470;2023-02-11T05:19:44;7.50;99.90
19928;DHT22;10126;50.876;4.470;2023-02-11T05:21:45;7.60;99.90
19928;DHT22;10126;50.876;4.470;2023-02-11T05:23:46;7.40;99.90
19928;DHT22;10126;50.876;4.470;2023-02-11T05:25:47;7.40;99.90
19928;DHT22;10126;50.876;4.470;2023-02-11T05:27:47;7.50;99.90
19928;DHT22;10126;50.876;4.470;2023-02-11T05:29:48;7.60;99.90
19928;DHT22;10126;50.876;4.470;2023-02-11T05:31:48;7.70;99.90
19928;DHT22;10126;50.876;4.470;2023-02-11T05:33:49;7.50;99.90
19928;DHT22;10126;50.876;4.470;2023-02-11T05:35:50;7.60;99.90
19928;DHT22;10126;50.876;4.470;2023-02-11T05:37:50;7.60;99.90
19928;DHT22;10126;50.876;4.470;2023-02-11T05:39:51;7.60;99.90
19928;DHT22;10126;50.876;4.470;2023-02-11T05:41:52;7.60;99.90
19928;DHT22;10126;50.876;4.470;2023-02-11T05:43:52;7.70;99.90
19928;DHT22;10126;50.876;4.470;2023-02-11T05:45:53;7.60;99.90
19928;DHT22;10126;50.876;4.470;2023-02-11T05:47:54;7.50;99.90
19928;DHT22;10126;50.876;4.470;2023-02-11T05:49:54;7.50;99.90
19928;DHT22;10126;50.876;4.470;2023-02-11T05:51:55;7.60;99.90
19928;DHT22;10126;50.876;4.470;2023-02-11T05:53:55;7.70;99.90
19928;DHT22;10126;50.876;4.470;2023-02-11T05:55:56;7.70;99.90
19928;DHT22;10126;50.876;4.470;2023-02-11T05:57:57;7.70;99.90
19928;DHT22;10126;50.876;4.470;2023-02-11T05:59:57;7.60;99.90
19928;DHT22;10126;50.876;4.470;2023-02-11T06:01:58;7.70;99.90
19928;DHT22;10126;50.876;4.470;2023-02-11T06:03:59;7.60;99.90
19928;DHT22;10126;50.876;4.470;2023-02-11T06:05:59;7.80;99.90
19928;DHT22;10126;50.876;4.470;2023-02-11T06:08:00;7.70;99.90
19928;DHT22;10126;50.876;4.470;2023-02-11T06:10:01;7.80;99.90
19928;DHT22;10126;50.876;4.470;2023-02-11T06:12:01;7.80;99.90
19928;DHT22;10126;50.876;4.470;2023-02-11T06:14:02;7.80;99.90
19928;DHT22;10126;50.876;4.470;2023-02-11T06:16:03;7.80;99.90
19928;DHT22;10126;50.876;4.470;2023-02-11T06:18:04;7.70;99.90
19928;DHT22;10126;50.876;4.470;2023-02-11T06:20:06;7.70;99.90
19928;DHT22;10126;50.876;4.470;2023-02-11T06:22:07;7.80;99.90
19928;DHT22;10126;50.876;4.470;2023-02-11T06:24:08;8.00;99.90
19928;DHT22;10126;50.876;4.470;2023-02-11T06:26:19;8.00;99.90
19928;DHT22;10126;50.876;4.470;2023-02-11T06:28:20;7.90;99.90
19928;DHT22;10126;50.876;4.470;2023-02-11T06:30:20;8.00;99.90
19928;DHT22;10126;50.876;4.470;2023-02-11T06:32:21;8.00;99.90
19928;DHT22;10126;50.876;4.470;2023-02-11T06:34:22;8.10;99.90
19928;DHT22;10126;50.876;4.470;2023-02-11T06:36:23;8.00;99.90
19928;DHT22;10126;50.876;4.470;2023-02-11T06:38:23;7.90;99.90
19928;DHT22;10126;50.876;4.470;2023-02-11T06:40:24;7.90;99.90
19928;DHT22;10126;50.876;4.470;2023-02-11T06:42:24;7.90;99.90
19928;DHT22;10126;50.876;4.470;2023-02-11T06:44:25;7.90;99.90
19928;DHT22;10126;50.876;4.470;2023-02-11T06:46:26;7.80;99.90
19928;DHT22;10126;50.876;4.470;2023-02-11T06:48:26;7.90;99.90
19928;DHT22;10126;50.876;4.470;2023-02-11T06:50:27;8.00;99.90
19928;DHT22;10126;50.876;4.470;2023-02-11T06:52:28;7.80;99.90
19928;DHT22;10126;50.876;4.470;2023-02-11T06:54:28;7.80;99.90
19928;DHT22;10126;50.876;4.470;2023-02-11T06:56:29;7.90;99.90
19928;DHT22;10126;50.876;4.470;2023-02-11T06:58:29;7.80;99.90
19928;DHT22;10126;50.876;4.470;2023-02-11T07:00:30;7.80;99.90
19928;DHT22;10126;50.876;4.470;2023-02-11T07:02:31;7.70;99.90
19928;DHT22;10126;50.876;4.470;2023-02-11T07:04:31;7.80;99.90
19928;DHT22;10126;50.876;4.470;2023-02-11T07:06:32;8.10;99.90
19928;DHT22;10126;50.876;4.470;2023-02-11T07:08:34;8.00;99.90
19928;DHT22;10126;50.876;4.470;2023-02-11T07:10:36;8.00;99.90
19928;DHT22;10126;50.876;4.470;2023-02-11T07:12:36;8.00;99.90
19928;DHT22;10126;50.876;4.470;2023-02-11T07:14:37;8.10;99.90
19928;DHT22;10126;50.876;4.470;2023-02-11T07:16:38;8.10;99.90
19928;DHT22;10126;50.876;4.470;2023-02-11T07:18:38;8.10;99.90
19928;DHT22;10126;50.876;4.470;2023-02-11T07:20:39;8.10;99.90
19928;DHT22;10126;50.876;4.470;2023-02-11T07:22:40;8.20;99.90
19928;DHT22;10126;50.876;4.470;2023-02-11T07:24:40;8.20;99.90
19928;DHT22;10126;50.876;4.470;2023-02-11T07:26:41;8.20;99.90
19928;DHT22;10126;50.876;4.470;2023-02-11T07:28:43;8.10;99.90
19928;DHT22;10126;50.876;4.470;2023-02-11T07:30:44;8.10;99.90
19928;DHT22;10126;50.876;4.470;2023-02-11T07:32:44;8.30;99.90
19928;DHT22;10126;50.876;4.470;2023-02-11T07:34:45;8.30;99.90
19928;DHT22;10126;50.876;4.470;2023-02-11T07:36:47;8.20;99.90
19928;DHT22;10126;50.876;4.470;2023-02-11T07:38:48;8.20;99.90
19928;DHT22;10126;50.876;4.470;2023-02-11T07:40:49;8.20;99.90
19928;DHT22;10126;50.876;4.470;2023-02-11T07:42:49;8.30;99.90
19928;DHT22;10126;50.876;4.470;2023-02-11T07:44:50;8.10;99.90
19928;DHT22;10126;50.876;4.470;2023-02-11T07:46:50;8.00;99.90
19928;DHT22;10126;50.876;4.470;2023-02-11T07:48:52;8.20;99.90
19928;DHT22;10126;50.876;4.470;2023-02-11T07:50:52;8.20;99.90
19928;DHT22;10126;50.876;4.470;2023-02-11T07:52:53;8.30;99.90
19928;DHT22;10126;50.876;4.470;2023-02-11T07:54:53;8.30;99.90
19928;DHT22;10126;50.876;4.470;2023-02-11T07:56:54;8.30;99.90
19928;DHT22;10126;50.876;4.470;2023-02-11T07:58:57;8.20;99.90
19928;DHT22;10126;50.876;4.470;2023-02-11T08:01:03;8.10;99.90
19928;DHT22;10126;50.876;4.470;2023-02-11T08:03:04;8.20;99.90
19928;DHT22;10126;50.876;4.470;2023-02-11T08:05:07;8.20;99.90
19928;DHT22;10126;50.876;4.470;2023-02-11T08:07:08;8.20;99.90
19928;DHT22;10126;50.876;4.470;2023-02-11T08:09:13;8.30;99.90
19928;DHT22;10126;50.876;4.470;2023-02-11T08:11:16;8.20;99.90
19928;DHT22;10126;50.876;4.470;2023-02-11T08:13:17;8.30;99.90
19928;DHT22;10126;50.876;4.470;2023-02-11T08:15:18;8.40;99.90
19928;DHT22;10126;50.876;4.470;2023-02-11T08:17:18;8.30;99.90
19928;DHT22;10126;50.876;4.470;2023-02-11T08:19:19;8.20;99.90
19928;DHT22;10126;50.876;4.470;2023-02-11T08:21:20;8.30;99.90
19928;DHT22;10126;50.876;4.470;2023-02-11T08:23:21;8.30;99.90
19928;DHT22;10126;50.876;4.470;2023-02-11T08:25:21;8.50;99.90
19928;DHT22;10126;50.876;4.470;2023-02-11T08:27:22;8.50;99.90
19928;DHT22;10126;50.876;4.470;2023-02-11T08:29:22;8.50;99.90
19928;DHT22;10126;50.876;4.470;2023-02-11T08:31:29;8.60;99.90
19928;DHT22;10126;50.876;4.470;2023-02-11T08:33:30;8.50;99.90
19928;DHT22;10126;50.876;4.470;2023-02-11T08:35:30;8.50;99.90
19928;DHT22;10126;50.876;4.470;2023-02-11T08:37:32;8.50;99.90
19928;DHT22;10126;50.876;4.470;2023-02-11T08:39:33;8.50;99.90
19928;DHT22;10126;50.876;4.470;2023-02-11T08:41:34;8.60;99.90
19928;DHT22;10126;50.876;4.470;2023-02-11T08:43:36;8.60;99.90
19928;DHT22;10126;50.876;4.470;2023-02-11T08:45:36;8.50;99.90
19928;DHT22;10126;50.876;4.470;2023-02-11T08:47:38;8.60;99.90
19928;DHT22;10126;50.876;4.470;2023-02-11T08:49:38;8.50;99.90
19928;DHT22;10126;50.876;4.470;2023-02-11T08:51:41;8.60;99.90
19928;DHT22;10126;50.876;4.470;2023-02-11T08:53:42;8.50;99.90
19928;DHT22;10126;50.876;4.470;2023-02-11T08:55:53;8.40;99.90
19928;DHT22;10126;50.876;4.470;2023-02-11T08:57:54;8.40;99.90
19928;DHT22;10126;50.876;4.470;2023-02-11T08:59:54;8.50;99.90
19928;DHT22;10126;50.876;4.470;2023-02-11T09:01:55;8.70;99.90
19928;DHT22;10126;50.876;4.470;2023-02-11T09:03:57;8.80;99.90
19928;DHT22;10126;50.876;4.470;2023-02-11T09:05:58;8.70;99.90
19928;DHT22;10126;50.876;4.470;2023-02-11T09:07:59;8.60;99.90
19928;DHT22;10126;50.876;4.470;2023-02-11T09:09:59;8.70;99.90
19928;DHT22;10126;50.876;4.470;2023-02-11T09:12:00;8.70;99.90
19928;DHT22;10126;50.876;4.470;2023-02-11T09:14:02;8.70;99.90
19928;DHT22;10126;50.876;4.470;2023-02-11T09:16:04;8.90;99.90
19928;DHT22;10126;50.876;4.470;2023-02-11T09:18:05;9.00;99.90
19928;DHT22;10126;50.876;4.470;2023-02-11T09:20:06;9.10;99.90
19928;DHT22;10126;50.876;4.470;2023-02-11T09:22:07;9.10;99.90
19928;DHT22;10126;50.876;4.470;2023-02-11T09:24:08;9.30;99.90
19928;DHT22;10126;50.876;4.470;2023-02-11T09:26:13;9.10;99.90
19928;DHT22;10126;50.876;4.470;2023-02-11T09:28:14;8.90;99.90
19928;DHT22;10126;50.876;4.470;2023-02-11T09:30:15;8.70;99.90
19928;DHT22;10126;50.876;4.470;2023-02-11T09:32:15;8.60;99.90
19928;DHT22;10126;50.876;4.470;2023-02-11T09:34:16;8.60;99.90
19928;DHT22;10126;50.876;4.470;2023-02-11T09:36:22;8.60;99.90
19928;DHT22;10126;50.876;4.470;2023-02-11T09:38:22;8.60;99.90
19928;DHT22;10126;50.876;4.470;2023-02-11T09:40:23;8.60;99.90
19928;DHT22;10126;50.876;4.470;2023-02-11T09:44:35;8.60;99.90
19928;DHT22;10126;50.876;4.470;2023-02-11T09:46:40;8.90;99.90
19928;DHT22;10126;50.876;4.470;2023-02-11T09:48:43;8.90;99.90
19928;DHT22;10126;50.876;4.470;2023-02-11T09:50:49;9.00;99.90
19928;DHT22;10126;50.876;4.470;2023-02-11T09:53:00;9.10;99.90
19928;DHT22;10126;50.876;4.470;2023-02-11T09:55:04;9.00;99.90
19928;DHT22;10126;50.876;4.470;2023-02-11T09:57:08;9.00;99.90
19928;DHT22;10126;50.876;4.470;2023-02-11T09:59:13;9.10;99.90
19928;DHT22;10126;50.876;4.470;2023-02-11T10:01:29;9.20;99.90
19928;DHT22;10126;50.876;4.470;2023-02-11T10:10:57;9.30;99.90
19928;DHT22;10126;50.876;4.470;2023-02-11T10:18:01;9.50;99.90
19928;DHT22;10126;50.876;4.470;2023-02-11T10:20:20;9.50;99.90
19928;DHT22;10126;50.876;4.470;2023-02-11T10:22:52;9.40;99.90
19928;DHT22;10126;50.876;4.470;2023-02-11T10:24:55;9.60;99.90
19928;DHT22;10126;50.876;4.470;2023-02-11T10:27:03;9.70;99.90
19928;DHT22;10126;50.876;4.470;2023-02-11T10:31:34;9.80;99.90
19928;DHT22;10126;50.876;4.470;2023-02-11T10:33:53;9.70;99.90
19928;DHT22;10126;50.876;4.470;2023-02-11T10:35:56;9.80;99.90
19928;DHT22;10126;50.876;4.470;2023-02-11T10:37:58;9.80;99.90
19928;DHT22;10126;50.876;4.470;2023-02-11T10:39:59;9.60;99.90
19928;DHT22;10126;50.876;4.470;2023-02-11T10:42:05;9.50;99.90
19928;DHT22;10126;50.876;4.470;2023-02-11T10:46:28;9.50;99.90
19928;DHT22;10126;50.876;4.470;2023-02-11T10:48:42;9.60;99.90
19928;DHT22;10126;50.876;4.470;2023-02-11T10:50:43;9.60;99.90
19928;DHT22;10126;50.876;4.470;2023-02-11T10:52:44;9.70;99.90
19928;DHT22;10126;50.876;4.470;2023-02-11T10:57:03;9.80;99.90
19928;DHT22;10126;50.876;4.470;2023-02-11T11:01:14;9.50;99.90
19928;DHT22;10126;50.876;4.470;2023-02-11T11:03:19;9.50;99.90
19928;DHT22;10126;50.876;4.470;2023-02-11T11:05:35;9.40;99.90
19928;DHT22;10126;50.876;4.470;2023-02-11T11:07:36;9.50;99.90
19928;DHT22;10126;50.876;4.470;2023-02-11T11:09:48;9.50;99.90
19928;DHT22;10126;50.876;4.470;2023-02-11T11:11:52;9.30;99.90
19928;DHT22;10126;50.876;4.470;2023-02-11T11:13:58;9.50;99.90
19928;DHT22;10126;50.876;4.470;2023-02-11T11:18:17;9.50;99.90
19928;DHT22;10126;50.876;4.470;2023-02-11T11:22:26;9.60;99.90
19928;DHT22;10126;50.876;4.470;2023-02-11T11:24:43;9.70;99.90
19928;DHT22;10126;50.876;4.470;2023-02-11T11:26:53;9.70;99.90
19928;DHT22;10126;50.876;4.470;2023-02-11T11:29:00;9.70;99.90
19928;DHT22;10126;50.876;4.470;2023-02-11T11:31:02;9.60;99.90
19928;DHT22;10126;50.876;4.470;2023-02-11T11:33:03;9.70;99.90
19928;DHT22;10126;50.876;4.470;2023-02-11T11:35:18;9.90;99.90
19928;DHT22;10126;50.876;4.470;2023-02-11T11:37:23;10.00;99.90
19928;DHT22;10126;50.876;4.470;2023-02-11T11:39:30;10.00;99.90
19928;DHT22;10126;50.876;4.470;2023-02-11T11:41:33;10.00;99.90
19928;DHT22;10126;50.876;4.470;2023-02-11T11:43:34;10.00;99.90
19928;DHT22;10126;50.876;4.470;2023-02-11T11:45:37;10.10;99.90
19928;DHT22;10126;50.876;4.470;2023-02-11T11:54:52;10.20;99.90
19928;DHT22;10126;50.876;4.470;2023-02-11T11:57:01;10.00;99.90
19928;DHT22;10126;50.876;4.470;2023-02-11T11:59:10;9.90;99.90
19928;DHT22;10126;50.876;4.470;2023-02-11T12:01:42;10.00;99.90
19928;DHT22;10126;50.876;4.470;2023-02-11T12:06:43;10.30;99.90
19928;DHT22;10126;50.876;4.470;2023-02-11T12:13:44;10.30;99.90
19928;DHT22;10126;50.876;4.470;2023-02-11T12:16:10;10.40;99.90
19928;DHT22;10126;50.876;4.470;2023-02-11T12:25:27;10.50;99.90
19928;DHT22;10126;50.876;4.470;2023-02-11T12:30:10;10.30;99.90
19928;DHT22;10126;50.876;4.470;2023-02-11T12:39:39;10.50;99.90
19928;DHT22;10126;50.876;4.470;2023-02-11T12:46:31;10.10;99.90
19928;DHT22;10126;50.876;4.470;2023-02-11T12:49:06;10.10;99.90
19928;DHT22;10126;50.876;4.470;2023-02-11T12:51:30;10.10;99.90
19928;DHT22;10126;50.876;4.470;2023-02-11T12:53:53;10.00;99.90
19928;DHT22;10126;50.876;4.470;2023-02-11T12:56:05;10.10;99.90
19928;DHT22;10126;50.876;4.470;2023-02-11T12:58:17;10.10;99.90
19928;DHT22;10126;50.876;4.470;2023-02-11T13:00:32;10.30;99.90
19928;DHT22;10126;50.876;4.470;2023-02-11T13:04:53;10.30;99.90
19928;DHT22;10126;50.876;4.470;2023-02-11T13:06:58;10.20;99.90
19928;DHT22;10126;50.876;4.470;2023-02-11T13:09:04;10.30;99.90
19928;DHT22;10126;50.876;4.470;2023-02-11T13:11:26;10.40;99.90
19928;DHT22;10126;50.876;4.470;2023-02-11T13:13:32;10.30;99.90
19928;DHT22;10126;50.876;4.470;2023-02-11T13:15:35;10.30;99.90
19928;DHT22;10126;50.876;4.470;2023-02-11T13:17:43;10.40;99.90
19928;DHT22;10126;50.876;4.470;2023-02-11T13:19:53;10.40;99.90
19928;DHT22;10126;50.876;4.470;2023-02-11T13:26:25;10.40;99.90
19928;DHT22;10126;50.876;4.470;2023-02-11T13:28:41;10.40;99.90
19928;DHT22;10126;50.876;4.470;2023-02-11T13:30:45;10.40;99.90
19928;DHT22;10126;50.876;4.470;2023-02-11T13:34:57;10.20;99.90
19928;DHT22;10126;50.876;4.470;2023-02-11T13:36:58;10.20;99.90
19928;DHT22;10126;50.876;4.470;2023-02-11T13:39:04;10.20;99.90
19928;DHT22;10126;50.876;4.470;2023-02-11T13:43:22;10.20;99.90
19928;DHT22;10126;50.876;4.470;2023-02-11T13:45:43;10.20;99.90
19928;DHT22;10126;50.876;4.470;2023-02-11T13:47:44;10.10;99.90
19928;DHT22;10126;50.876;4.470;2023-02-11T13:49:49;10.20;99.90
19928;DHT22;10126;50.876;4.470;2023-02-11T13:51:54;10.40;99.90
19928;DHT22;10126;50.876;4.470;2023-02-11T13:53:56;10.50;99.90
19928;DHT22;10126;50.876;4.470;2023-02-11T13:56:11;10.50;99.90
19928;DHT22;10126;50.876;4.470;2023-02-11T14:02:35;10.40;99.90
19928;DHT22;10126;50.876;4.470;2023-02-11T14:07:31;10.60;99.90
19928;DHT22;10126;50.876;4.470;2023-02-11T14:09:51;10.60;99.90
19928;DHT22;10126;50.876;4.470;2023-02-11T14:12:20;10.60;99.90
19928;DHT22;10126;50.876;4.470;2023-02-11T14:14:31;10.60;99.90
19928;DHT22;10126;50.876;4.470;2023-02-11T14:16:33;10.60;99.90
19928;DHT22;10126;50.876;4.470;2023-02-11T14:20:44;10.70;99.90
19928;DHT22;10126;50.876;4.470;2023-02-11T14:22:48;10.80;99.90
19928;DHT22;10126;50.876;4.470;2023-02-11T14:25:03;10.70;99.90
19928;DHT22;10126;50.876;4.470;2023-02-11T14:29:48;10.80;99.90
19928;DHT22;10126;50.876;4.470;2023-02-11T14:32:12;10.80;99.90
19928;DHT22;10126;50.876;4.470;2023-02-11T14:38:58;10.90;99.90
19928;DHT22;10126;50.876;4.470;2023-02-11T14:41:38;10.90;99.90
19928;DHT22;10126;50.876;4.470;2023-02-11T14:43:46;10.80;99.90
19928;DHT22;10126;50.876;4.470;2023-02-11T14:45:55;10.90;99.90
19928;DHT22;10126;50.876;4.470;2023-02-11T14:48:06;11.00;99.90
19928;DHT22;10126;50.876;4.470;2023-02-11T14:50:27;11.00;99.90
19928;DHT22;10126;50.876;4.470;2023-02-11T14:52:33;11.30;99.90
19928;DHT22;10126;50.876;4.470;2023-02-11T14:54:36;11.30;99.90
19928;DHT22;10126;50.876;4.470;2023-02-11T14:56:37;11.00;99.90
19928;DHT22;10126;50.876;4.470;2023-02-11T14:58:45;11.00;99.90
19928;DHT22;10126;50.876;4.470;2023-02-11T15:01:21;10.90;99.90
19928;DHT22;10126;50.876;4.470;2023-02-11T15:03:41;10.80;99.90
19928;DHT22;10126;50.876;4.470;2023-02-11T15:05:42;10.80;99.90
19928;DHT22;10126;50.876;4.470;2023-02-11T15:07:49;10.90;99.90
19928;DHT22;10126;50.876;4.470;2023-02-11T15:09:51;11.00;99.90
19928;DHT22;10126;50.876;4.470;2023-02-11T15:11:53;11.00;99.90
19928;DHT22;10126;50.876;4.470;2023-02-11T15:13:56;11.10;99.90
19928;DHT22;10126;50.876;4.470;2023-02-11T15:16:03;10.90;99.90
19928;DHT22;10126;50.876;4.470;2023-02-11T15:18:05;10.80;99.90
19928;DHT22;10126;50.876;4.470;2023-02-11T15:20:26;10.80;99.90
19928;DHT22;10126;50.876;4.470;2023-02-11T15:22:29;10.60;99.90
19928;DHT22;10126;50.876;4.470;2023-02-11T15:24:33;10.70;99.90
19928;DHT22;10126;50.876;4.470;2023-02-11T15:26:34;10.70;99.90